sensor_id;sensor_type;location;lat;lon;timestamp;pressure;altitude;pressure_sealevel;temperature;humidity
40730;BME280;26418;50.070;8.436;2023-02-15T00:01:26;101549.97;;;1.46;100.00
40730;BME280;26418;50.070;8.436;2023-02-15T00:03:52;101556.91;;;1.40;100.00
40730;BME280;26418;50.070;8.436;2023-02-15T00:06:17;101546.63;;;1.37;100.00
40730;BME280;26418;50.070;8.436;2023-02-15T00:08:43;101541.31;;;1.37;100.00
40730;BME280;26418;50.070;8.436;2023-02-15T00:11:11;101535.75;;;1.39;100.00
40730;BME280;26418;50.070;8.436;2023-02-15T00:13:37;101538.69;;;1.44;100.00
40730;BME280;26418;50.070;8.436;2023-02-15T00:16:06;101527.38;;;1.42;100.00
40730;BME280;26418;50.070;8.436;2023-02-15T00:18:31;101529.84;;;1.44;100.00
40730;BME280;26418;50.070;8.436;2023-02-15T00:20:57;101519.16;;;1.44;100.00
40730;BME280;26418;50.070;8.436;2023-02-15T00:23:23;101502.75;;;1.33;100.00
40730;BME280;26418;50.070;8.436;2023-02-15T00:25:50;101517.34;;;1.44;100.00
40730;BME280;26418;50.070;8.436;2023-02-15T00:28:15;101506.44;;;1.39;100.00
40730;BME280;26418;50.070;8.436;2023-02-15T00:30:41;101516.13;;;1.47;100.00
40730;BME280;26418;50.070;8.436;2023-02-15T00:33:06;101503.59;;;1.40;100.00
40730;BME280;26418;50.070;8.436;2023-02-15T00:35:31;101517.97;;;1.53;100.00
40730;BME280;26418;50.070;8.436;2023-02-15T00:37:56;101521.06;;;1.56;100.00
40730;BME280;26418;50.070;8.436;2023-02-15T00:40:22;101507.72;;;1.56;100.00
40730;BME280;26418;50.070;8.436;2023-02-15T00:42:47;101498.25;;;1.47;100.00
40730;BME280;26418;50.070;8.436;2023-02-15T00:45:13;101507.13;;;1.54;100.00
40730;BME280;26418;50.070;8.436;2023-02-15T00:47:38;101510.22;;;1.58;100.00
40730;BME280;26418;50.070;8.436;2023-02-15T00:50:04;101507.56;;;1.58;100.00
40730;BME280;26418;50.070;8.436;2023-02-15T00:52:30;101514.72;;;1.57;100.00
40730;BME280;26418;50.070;8.436;2023-02-15T00:54:55;101503.22;;;1.50;100.00
40730;BME280;26418;50.070;8.436;2023-02-15T00:57:21;101511.88;;;1.59;100.00
40730;BME280;26418;50.070;8.436;2023-02-15T00:59:46;101509.78;;;1.61;100.00
40730;BME280;26418;50.070;8.436;2023-02-15T01:02:11;101518.44;;;1.63;100.00
40730;BME280;26418;50.070;8.436;2023-02-15T01:04:36;101516.56;;;1.64;100.00
40730;BME280;26418;50.070;8.436;2023-02-15T01:07:02;101513.31;;;1.62;100.00
40730;BME280;26418;50.070;8.436;2023-02-15T01:09:28;101519.06;;;1.65;100.00
40730;BME280;26418;50.070;8.436;2023-02-15T01:11:54;101507.97;;;1.62;100.00
40730;BME280;26418;50.070;8.436;2023-02-15T01:14:19;101509.19;;;1.66;100.00
40730;BME280;26418;50.070;8.436;2023-02-15T01:16:45;101507.97;;;1.62;100.00
40730;BME280;26418;50.070;8.436;2023-02-15T01:19:10;101485.19;;;1.52;100.00
40730;BME280;26418;50.070;8.436;2023-02-15T01:21:35;101504.25;;;1.56;100.00
40730;BME280;26418;50.070;8.436;2023-02-15T01:24:01;101504.25;;;1.56;100.00
40730;BME280;26418;50.070;8.436;2023-02-15T01:26:26;101487.19;;;1.44;100.00
40730;BME280;26418;50.070;8.436;2023-02-15T01:28:52;101498.50;;;1.52;100.00
40730;BME280;26418;50.070;8.436;2023-02-15T01:31:19;101496.03;;;1.51;100.00
40730;BME280;26418;50.070;8.436;2023-02-15T01:33:46;101497.66;;;1.45;100.00
40730;BME280;26418;50.070;8.436;2023-02-15T01:36:12;101490.72;;;1.51;100.00
40730;BME280;26418;50.070;8.436;2023-02-15T01:38:37;101492.53;;;1.50;100.00
40730;BME280;26418;50.070;8.436;2023-02-15T01:41:04;101493.78;;;1.48;100.00
40730;BME280;26418;50.070;8.436;2023-02-15T01:43:57;101496.44;;;1.48;100.00
40730;BME280;26418;50.070;8.436;2023-02-15T01:46:39;101477.16;;;1.46;100.00
40730;BME280;26418;50.070;8.436;2023-02-15T01:49:15;101481.25;;;1.48;100.00
40730;BME280;26418;50.070;8.436;2023-02-15T01:51:44;101480.84;;;1.51;100.00
40730;BME280;26418;50.070;8.436;2023-02-15T01:56:37;101487.41;;;1.55;100.00
40730;BME280;26418;50.070;8.436;2023-02-15T01:59:08;101479.63;;;1.54;100.00
40730;BME280;26418;50.070;8.436;2023-02-15T02:01:34;101481.50;;;1.53;100.00
40730;BME280;26418;50.070;8.436;2023-02-15T02:06:30;101480.84;;;1.51;100.00
40730;BME280;26418;50.070;8.436;2023-02-15T02:08:57;101474.72;;;1.51;100.00
40730;BME280;26418;50.070;8.436;2023-02-15T02:11:23;101471.00;;;1.52;100.00
40730;BME280;26418;50.070;8.436;2023-02-15T02:13:50;101469.56;;;1.49;100.00
40730;BME280;26418;50.070;8.436;2023-02-15T02:16:58;101471.00;;;1.52;100.00
40730;BME280;26418;50.070;8.436;2023-02-15T02:25:25;101462.59;;;1.55;100.00
40730;BME280;26418;50.070;8.436;2023-02-15T02:31:16;101467.56;;;1.58;100.00
40730;BME280;26418;50.070;8.436;2023-02-15T02:33:49;101460.34;;;1.59;100.00
40730;BME280;26418;50.070;8.436;2023-02-15T02:41:56;101449.69;;;1.59;100.00
40730;BME280;26418;50.070;8.436;2023-02-15T02:47:13;101456.28;;;1.63;100.00
40730;BME280;26418;50.070;8.436;2023-02-15T02:49:43;101456.28;;;1.63;100.00
40730;BME280;26418;50.070;8.436;2023-02-15T02:54:59;101449.09;;;1.63;100.00
40730;BME280;26418;50.070;8.436;2023-02-15T02:57:26;101445.63;;;1.63;100.00
40730;BME280;26418;50.070;8.436;2023-02-15T02:59:53;101430.41;;;1.56;100.00
40730;BME280;26418;50.070;8.436;2023-02-15T03:02:25;101431.66;;;1.61;100.00
40730;BME280;26418;50.070;8.436;2023-02-15T03:04:59;101422.41;;;1.50;100.00
40730;BME280;26418;50.070;8.436;2023-02-15T03:07:29;101432.69;;;1.60;100.00
40730;BME280;26418;50.070;8.436;2023-02-15T03:09:57;101429.78;;;1.61;100.00
40730;BME280;26418;50.070;8.436;2023-02-15T03:12:28;101430.63;;;1.62;100.00
40730;BME280;26418;50.070;8.436;2023-02-15T03:15:01;101444.78;;;1.62;100.00
40730;BME280;26418;50.070;8.436;2023-02-15T03:17:35;101435.97;;;1.62;100.00
40730;BME280;26418;50.070;8.436;2023-02-15T03:20:06;101434.09;;;1.62;100.00
40730;BME280;26418;50.070;8.436;2023-02-15T03:22:37;101430.63;;;1.62;100.00
40730;BME280;26418;50.070;8.436;2023-02-15T03:27:38;101429.00;;;1.61;100.00
40730;BME280;26418;50.070;8.436;2023-02-15T03:30:06;101429.63;;;1.63;100.00
40730;BME280;26418;50.070;8.436;2023-02-15T03:32:33;101420.56;;;1.57;100.00
40730;BME280;26418;50.070;8.436;2023-02-15T03:35:00;101423.66;;;1.61;100.00
40730;BME280;26418;50.070;8.436;2023-02-15T03:37:32;101424.88;;;1.58;100.00
40730;BME280;26418;50.070;8.436;2023-02-15T03:40:30;101422.22;;;1.58;100.00
40730;BME280;26418;50.070;8.436;2023-02-15T03:43:27;101414.41;;;1.56;100.00
40730;BME280;26418;50.070;8.436;2023-02-15T03:45:59;101416.88;;;1.58;100.00
40730;BME280;26418;50.070;8.436;2023-02-15T03:48:37;101403.13;;;1.48;100.00
40730;BME280;26418;50.070;8.436;2023-02-15T03:51:08;101415.88;;;1.59;100.00
40730;BME280;26418;50.070;8.436;2023-02-15T03:53:54;101411.16;;;1.54;99.99
40730;BME280;26418;50.070;8.436;2023-02-15T03:56:21;101415.63;;;1.54;100.00
40730;BME280;26418;50.070;8.436;2023-02-15T03:58:46;101406.63;;;1.55;99.96
40730;BME280;26418;50.070;8.436;2023-02-15T04:04:46;101401.50;;;1.53;99.98
40730;BME280;26418;50.070;8.436;2023-02-15T04:07:09;101402.28;;;1.47;100.00
40730;BME280;26418;50.070;8.436;2023-02-15T04:09:34;101409.69;;;1.52;99.92
40730;BME280;26418;50.070;8.436;2023-02-15T04:12:18;101410.50;;;1.46;99.41
40730;BME280;26418;50.070;8.436;2023-02-15T04:14:43;101415.22;;;1.50;99.59
40730;BME280;26418;50.070;8.436;2023-02-15T04:17:28;101406.81;;;1.47;99.87
40730;BME280;26418;50.070;8.436;2023-02-15T04:19:53;101390.78;;;1.40;100.00
40730;BME280;26418;50.070;8.436;2023-02-15T04:22:37;101406.00;;;1.53;99.86
40730;BME280;26418;50.070;8.436;2023-02-15T04:25:21;101411.16;;;1.54;99.99
40730;BME280;26418;50.070;8.436;2023-02-15T04:27:51;101396.16;;;1.47;100.00
40730;BME280;26418;50.070;8.436;2023-02-15T04:30:20;101417.91;;;1.57;99.86
40730;BME280;26418;50.070;8.436;2023-02-15T04:32:45;101414.41;;;1.56;99.80
40730;BME280;26418;50.070;8.436;2023-02-15T04:35:11;101413.81;;;1.54;99.88
40730;BME280;26418;50.070;8.436;2023-02-15T04:37:37;101412.97;;;1.54;99.89
40730;BME280;26418;50.070;8.436;2023-02-15T04:40:04;101409.28;;;1.55;100.00
40730;BME280;26418;50.070;8.436;2023-02-15T04:42:30;101403.94;;;1.55;100.00
40730;BME280;26418;50.070;8.436;2023-02-15T04:44:56;101398.41;;;1.56;100.00
40730;BME280;26418;50.070;8.436;2023-02-15T04:47:21;101402.53;;;1.59;99.93
40730;BME280;26418;50.070;8.436;2023-02-15T04:49:47;101398.22;;;1.58;99.76
40730;BME280;26418;50.070;8.436;2023-02-15T04:52:12;101397.19;;;1.52;99.75
40730;BME280;26418;50.070;8.436;2023-02-15T04:54:38;101408.25;;;1.56;99.84
40730;BME280;26418;50.070;8.436;2023-02-15T04:57:03;101389.38;;;1.44;99.44
40730;BME280;26418;50.070;8.436;2023-02-15T04:59:29;101401.88;;;1.50;99.62
40730;BME280;26418;50.070;8.436;2023-02-15T05:01:54;101397.38;;;1.44;99.81
40730;BME280;26418;50.070;8.436;2023-02-15T05:04:19;101386.47;;;1.39;99.95
40730;BME280;26418;50.070;8.436;2023-02-15T05:06:45;101404.78;;;1.49;99.75
40730;BME280;26418;50.070;8.436;2023-02-15T05:09:13;101401.06;;;1.43;99.44
40730;BME280;26418;50.070;8.436;2023-02-15T05:11:39;101400.44;;;1.34;99.25
40730;BME280;26418;50.070;8.436;2023-02-15T05:14:04;101390.78;;;1.27;99.04
40730;BME280;26418;50.070;8.436;2023-02-15T05:16:29;101389.53;;;1.22;99.54
40730;BME280;26418;50.070;8.436;2023-02-15T05:18:55;101390.34;;;1.16;99.58
40730;BME280;26418;50.070;8.436;2023-02-15T05:21:20;101390.97;;;1.18;100.00
40730;BME280;26418;50.070;8.436;2023-02-15T05:23:45;101389.75;;;1.21;100.00
40730;BME280;26418;50.070;8.436;2023-02-15T05:26:17;101385.84;;;1.23;100.00
40730;BME280;26418;50.070;8.436;2023-02-15T05:29:01;101389.94;;;1.26;100.00
40730;BME280;26418;50.070;8.436;2023-02-15T05:31:26;101387.94;;;1.35;100.00
40730;BME280;26418;50.070;8.436;2023-02-15T05:33:51;101387.53;;;1.38;100.00
40730;BME280;26418;50.070;8.436;2023-02-15T05:36:17;101373.78;;;1.28;100.00
40730;BME280;26418;50.070;8.436;2023-02-15T05:38:42;101384.44;;;1.34;100.00
40730;BME280;26418;50.070;8.436;2023-02-15T05:41:09;101388.94;;;1.34;100.00
40730;BME280;26418;50.070;8.436;2023-02-15T05:43:36;101390.19;;;1.31;100.00
40730;BME280;26418;50.070;8.436;2023-02-15T05:46:02;101359.19;;;1.17;100.00
40730;BME280;26418;50.070;8.436;2023-02-15T05:48:28;101384.22;;;1.29;100.00
40730;BME280;26418;50.070;8.436;2023-02-15T05:51:10;101389.75;;;1.28;100.00
40730;BME280;26418;50.070;8.436;2023-02-15T05:53:39;101386.06;;;1.29;100.00
40730;BME280;26418;50.070;8.436;2023-02-15T05:56:06;101389.34;;;1.31;100.00
40730;BME280;26418;50.070;8.436;2023-02-15T05:58:42;101387.28;;;1.26;100.00
40730;BME280;26418;50.070;8.436;2023-02-15T06:01:15;101392.81;;;1.24;100.00
40730;BME280;26418;50.070;8.436;2023-02-15T06:03:42;101381.94;;;1.19;100.00
40730;BME280;26418;50.070;8.436;2023-02-15T06:06:08;101394.06;;;1.35;100.00
40730;BME280;26418;50.070;8.436;2023-02-15T06:08:35;101396.75;;;1.42;100.00
40730;BME280;26418;50.070;8.436;2023-02-15T06:11:01;101397.78;;;1.34;100.00
40730;BME280;26418;50.070;8.436;2023-02-15T06:13:27;101399.59;;;1.34;100.00
40730;BME280;26418;50.070;8.436;2023-02-15T06:15:53;101403.50;;;1.31;100.00
40730;BME280;26418;50.070;8.436;2023-02-15T06:18:18;101400.25;;;1.56;100.00
40730;BME280;26418;50.070;8.436;2023-02-15T06:20:45;101403.91;;;2.35;100.00
40730;BME280;26418;50.070;8.436;2023-02-15T06:23:10;101407.75;;;3.12;100.00
40730;BME280;26418;50.070;8.436;2023-02-15T06:25:36;101405.97;;;3.70;100.00
40730;BME280;26418;50.070;8.436;2023-02-15T06:28:01;101400.88;;;4.12;100.00
40730;BME280;26418;50.070;8.436;2023-02-15T06:30:26;101397.75;;;4.40;100.00
40730;BME280;26418;50.070;8.436;2023-02-15T06:32:52;101414.16;;;4.25;100.00
40730;BME280;26418;50.070;8.436;2023-02-15T06:35:17;101412.09;;;3.77;100.00
40730;BME280;26418;50.070;8.436;2023-02-15T06:37:45;101413.22;;;3.30;100.00
40730;BME280;26418;50.070;8.436;2023-02-15T06:40:10;101415.69;;;2.87;98.17
40730;BME280;26418;50.070;8.436;2023-02-15T06:42:35;101422.16;;;2.52;97.98
40730;BME280;26418;50.070;8.436;2023-02-15T06:45:01;101423.03;;;2.26;98.55
40730;BME280;26418;50.070;8.436;2023-02-15T06:47:26;101432.31;;;2.03;99.00
40730;BME280;26418;50.070;8.436;2023-02-15T06:49:51;101432.69;;;1.80;98.81
40730;BME280;26418;50.070;8.436;2023-02-15T06:52:17;101438.63;;;1.62;99.28
40730;BME280;26418;50.070;8.436;2023-02-15T06:54:42;101427.53;;;1.38;99.58
40730;BME280;26418;50.070;8.436;2023-02-15T06:57:07;101445.13;;;1.39;100.00
40730;BME280;26418;50.070;8.436;2023-02-15T06:59:34;101443.25;;;1.26;100.00
40730;BME280;26418;50.070;8.436;2023-02-15T07:01:59;101443.06;;;1.28;100.00
40730;BME280;26418;50.070;8.436;2023-02-15T07:04:25;101434.47;;;1.32;100.00
40730;BME280;26418;50.070;8.436;2023-02-15T07:06:50;101438.53;;;1.28;100.00
40730;BME280;26418;50.070;8.436;2023-02-15T07:09:15;101435.06;;;1.28;100.00
40730;BME280;26418;50.070;8.436;2023-02-15T07:11:41;101436.28;;;1.25;100.00
40730;BME280;26418;50.070;8.436;2023-02-15T07:14:25;101436.47;;;1.17;100.00
40730;BME280;26418;50.070;8.436;2023-02-15T07:16:50;101434.63;;;1.17;100.00
40730;BME280;26418;50.070;8.436;2023-02-15T07:19:16;101442.81;;;1.16;100.00
40730;BME280;26418;50.070;8.436;2023-02-15T07:21:41;101444.06;;;1.13;100.00
40730;BME280;26418;50.070;8.436;2023-02-15T07:24:06;101436.44;;;1.10;100.00
40730;BME280;26418;50.070;8.436;2023-02-15T07:26:33;101431.72;;;1.05;100.00
40730;BME280;26418;50.070;8.436;2023-02-15T07:28:58;101426.97;;;1.01;100.00
40730;BME280;26418;50.070;8.436;2023-02-15T07:31:24;101441.97;;;1.08;100.00
40730;BME280;26418;50.070;8.436;2023-02-15T07:33:49;101438.25;;;1.03;100.00
40730;BME280;26418;50.070;8.436;2023-02-15T07:36:14;101440.25;;;0.94;100.00
40730;BME280;26418;50.070;8.436;2023-02-15T07:38:41;101439.44;;;0.93;100.00
40730;BME280;26418;50.070;8.436;2023-02-15T07:41:09;101438.44;;;0.94;100.00
40730;BME280;26418;50.070;8.436;2023-02-15T07:43:37;101445.00;;;0.99;100.00
40730;BME280;26418;50.070;8.436;2023-02-15T07:46:04;101434.56;;;0.97;100.00
40730;BME280;26418;50.070;8.436;2023-02-15T07:48:30;101424.69;;;0.91;100.00
40730;BME280;26418;50.070;8.436;2023-02-15T07:51:00;101432.94;;;1.03;100.00
40730;BME280;26418;50.070;8.436;2023-02-15T07:53:27;101428.84;;;1.07;100.00
40730;BME280;26418;50.070;8.436;2023-02-15T07:55:52;101415.53;;;1.14;100.00
40730;BME280;26418;50.070;8.436;2023-02-15T07:58:18;101417.22;;;1.21;100.00
40730;BME280;26418;50.070;8.436;2023-02-15T08:00:44;101421.50;;;1.22;100.00
40730;BME280;26418;50.070;8.436;2023-02-15T08:03:25;101417.41;;;1.13;100.00
40730;BME280;26418;50.070;8.436;2023-02-15T08:05:58;101429.25;;;1.10;100.00
40730;BME280;26418;50.070;8.436;2023-02-15T08:08:24;101426.78;;;1.02;100.00
40730;BME280;26418;50.070;8.436;2023-02-15T08:11:02;101420.00;;;1.00;100.00
40730;BME280;26418;50.070;8.436;2023-02-15T08:13:48;101411.97;;;0.93;100.00
40730;BME280;26418;50.070;8.436;2023-02-15T08:18:49;101413.25;;;0.97;100.00
40730;BME280;26418;50.070;8.436;2023-02-15T08:21:15;101416.16;;;1.09;100.00
40730;BME280;26418;50.070;8.436;2023-02-15T08:23:40;101408.16;;;1.09;100.00
40730;BME280;26418;50.070;8.436;2023-02-15T08:26:06;101415.75;;;1.12;100.00
40730;BME280;26418;50.070;8.436;2023-02-15T08:28:31;101421.50;;;1.22;100.00
40730;BME280;26418;50.070;8.436;2023-02-15T08:31:10;101384.38;;;1.07;100.00
40730;BME280;26418;50.070;8.436;2023-02-15T08:33:37;101410.44;;;1.25;100.00
40730;BME280;26418;50.070;8.436;2023-02-15T08:36:08;101386.88;;;1.16;100.00
40730;BME280;26418;50.070;8.436;2023-02-15T08:38:34;101399.16;;;1.23;100.00
40730;BME280;26418;50.070;8.436;2023-02-15T08:41:16;101398.56;;;1.21;100.00
40730;BME280;26418;50.070;8.436;2023-02-15T08:43:43;101402.03;;;1.22;100.00
40730;BME280;26418;50.070;8.436;2023-02-15T08:46:09;101392.38;;;1.14;100.00
40730;BME280;26418;50.070;8.436;2023-02-15T08:48:35;101403.25;;;1.26;100.00
40730;BME280;26418;50.070;8.436;2023-02-15T08:51:09;101402.25;;;1.27;100.00
40730;BME280;26418;50.070;8.436;2023-02-15T08:53:39;101394.69;;;1.24;99.69
40730;BME280;26418;50.070;8.436;2023-02-15T08:56:06;101392.19;;;1.22;99.51
40730;BME280;26418;50.070;8.436;2023-02-15T08:58:32;101396.72;;;1.22;99.48
40730;BME280;26418;50.070;8.436;2023-02-15T09:00:58;101390.75;;;1.20;99.02
40730;BME280;26418;50.070;8.436;2023-02-15T09:03:23;101393.25;;;1.21;99.30
40730;BME280;26418;50.070;8.436;2023-02-15T09:05:49;101393.84;;;1.23;97.80
40730;BME280;26418;50.070;8.436;2023-02-15T09:08:14;101392.00;;;1.24;96.34
40730;BME280;26418;50.070;8.436;2023-02-15T09:10:40;101392.00;;;1.24;96.56
40730;BME280;26418;50.070;8.436;2023-02-15T09:13:05;101376.63;;;1.19;97.11
40730;BME280;26418;50.070;8.436;2023-02-15T09:15:30;101380.94;;;1.27;97.47
40730;BME280;26418;50.070;8.436;2023-02-15T09:17:56;101381.56;;;1.29;97.67
40730;BME280;26418;50.070;8.436;2023-02-15T09:20:24;101385.44;;;1.27;97.44
40730;BME280;26418;50.070;8.436;2023-02-15T09:22:51;101376.44;;;1.28;97.62
40730;BME280;26418;50.070;8.436;2023-02-15T09:25:16;101369.66;;;1.32;97.89
40730;BME280;26418;50.070;8.436;2023-02-15T09:27:42;101370.91;;;1.36;98.25
40730;BME280;26418;50.070;8.436;2023-02-15T09:30:08;101363.72;;;1.36;98.03
40730;BME280;26418;50.070;8.436;2023-02-15T09:32:34;101372.75;;;1.42;98.90
40730;BME280;26418;50.070;8.436;2023-02-15T09:34:59;101362.50;;;1.46;98.30
40730;BME280;26418;50.070;8.436;2023-02-15T09:37:24;101358.38;;;1.36;97.70
40730;BME280;26418;50.070;8.436;2023-02-15T09:39:50;101369.06;;;1.43;97.59
40730;BME280;26418;50.070;8.436;2023-02-15T09:55:51;101384.47;;;1.61;97.30
40730;BME280;26418;50.070;8.436;2023-02-15T09:58:52;101384.28;;;1.63;96.66
40730;BME280;26418;50.070;8.436;2023-02-15T10:04:25;101391.44;;;1.69;96.85
40730;BME280;26418;50.070;8.436;2023-02-15T10:12:12;101398.63;;;1.82;96.53
40730;BME280;26418;50.070;8.436;2023-02-15T10:17:40;101390.84;;;1.80;95.85
40730;BME280;26418;50.070;8.436;2023-02-15T10:25:45;101397.59;;;1.89;96.54
40730;BME280;26418;50.070;8.436;2023-02-15T10:28:18;101392.28;;;1.96;96.40
40730;BME280;26418;50.070;8.436;2023-02-15T10:30:46;101386.72;;;1.98;95.98
40730;BME280;26418;50.070;8.436;2023-02-15T10:36:27;101395.16;;;1.95;95.55
40730;BME280;26418;50.070;8.436;2023-02-15T10:39:16;101400.69;;;1.93;95.30
40730;BME280;26418;50.070;8.436;2023-02-15T10:58:35;101374.44;;;1.97;95.60
40730;BME280;26418;50.070;8.436;2023-02-15T11:01:19;101374.41;;;2.10;95.98
40730;BME280;26418;50.070;8.436;2023-02-15T11:04:05;101375.44;;;2.09;93.73
40730;BME280;26418;50.070;8.436;2023-02-15T11:06:34;101369.47;;;2.14;93.84
40730;BME280;26418;50.070;8.436;2023-02-15T11:09:07;101363.72;;;2.03;92.18
40730;BME280;26418;50.070;8.436;2023-02-15T11:11:37;101367.22;;;2.04;92.19
40730;BME280;26418;50.070;8.436;2023-02-15T11:14:15;101356.34;;;2.06;92.83
40730;BME280;26418;50.070;8.436;2023-02-15T11:16:45;101367.00;;;2.12;93.31
40730;BME280;26418;50.070;8.436;2023-02-15T11:19:21;101360.03;;;2.11;91.58
40730;BME280;26418;50.070;8.436;2023-02-15T11:21:53;101357.78;;;2.08;92.30
40730;BME280;26418;50.070;8.436;2023-02-15T11:24:20;101360.03;;;2.18;92.59
40730;BME280;26418;50.070;8.436;2023-02-15T11:29:26;101354.25;;;2.28;92.54
40730;BME280;26418;50.070;8.436;2023-02-15T11:31:59;101346.25;;;2.28;92.43
40730;BME280;26418;50.070;8.436;2023-02-15T11:34:38;101341.31;;;2.25;91.57
40730;BME280;26418;50.070;8.436;2023-02-15T11:37:12;101345.22;;;2.29;91.26
40730;BME280;26418;50.070;8.436;2023-02-15T11:39:40;101339.44;;;2.32;91.49
40730;BME280;26418;50.070;8.436;2023-02-15T11:42:17;101343.13;;;2.38;91.33
40730;BME280;26418;50.070;8.436;2023-02-15T11:47:35;101334.94;;;2.39;89.80
40730;BME280;26418;50.070;8.436;2023-02-15T11:50:00;101316.25;;;2.32;90.18
40730;BME280;26418;50.070;8.436;2023-02-15T11:52:26;101329.94;;;2.49;90.68
40730;BME280;26418;50.070;8.436;2023-02-15T11:54:52;101325.63;;;2.48;90.31
40730;BME280;26418;50.070;8.436;2023-02-15T11:57:25;101319.47;;;2.55;89.82
40730;BME280;26418;50.070;8.436;2023-02-15T12:00:02;101308.56;;;2.56;89.96
40730;BME280;26418;50.070;8.436;2023-02-15T12:02:31;101322.47;;;2.65;90.04
40730;BME280;26418;50.070;8.436;2023-02-15T12:05:06;101309.94;;;2.65;90.11
40730;BME280;26418;50.070;8.436;2023-02-15T12:07:37;101311.16;;;2.70;90.58
40730;BME280;26418;50.070;8.436;2023-02-15T12:10:26;101308.69;;;2.75;90.82
40730;BME280;26418;50.070;8.436;2023-02-15T12:13:14;101300.44;;;2.76;91.11
40730;BME280;26418;50.070;8.436;2023-02-15T12:16:04;101300.19;;;2.85;90.66
40730;BME280;26418;50.070;8.436;2023-02-15T12:18:33;101298.13;;;2.87;90.61
40730;BME280;26418;50.070;8.436;2023-02-15T12:21:03;101291.31;;;2.91;90.93
40730;BME280;26418;50.070;8.436;2023-02-15T12:23:30;101293.34;;;2.95;90.76
40730;BME280;26418;50.070;8.436;2023-02-15T12:25:58;101297.00;;;3.01;90.86
40730;BME280;26418;50.070;8.436;2023-02-15T12:28:33;101291.25;;;3.04;90.62
40730;BME280;26418;50.070;8.436;2023-02-15T12:31:02;101290.41;;;3.04;89.79
40730;BME280;26418;50.070;8.436;2023-02-15T12:33:31;101290.25;;;2.98;88.35
40730;BME280;26418;50.070;8.436;2023-02-15T12:36:29;101290.84;;;3.01;89.29
40730;BME280;26418;50.070;8.436;2023-02-15T12:41:37;101271.91;;;3.02;89.58
40730;BME280;26418;50.070;8.436;2023-02-15T12:44:19;101286.94;;;3.03;89.38
40730;BME280;26418;50.070;8.436;2023-02-15T12:47:03;101283.22;;;3.04;89.72
40730;BME280;26418;50.070;8.436;2023-02-15T12:49:36;101277.66;;;3.06;89.75
40730;BME280;26418;50.070;8.436;2023-02-15T12:52:46;101273.19;;;2.99;89.53
40730;BME280;26418;50.070;8.436;2023-02-15T12:54:52;101275.00;;;2.99;89.97
40730;BME280;26418;50.070;8.436;2023-02-15T12:57:33;101270.72;;;2.98;89.55
40730;BME280;26418;50.070;8.436;2023-02-15T13:00:04;101269.47;;;3.01;89.70
40730;BME280;26418;50.070;8.436;2023-02-15T13:05:51;101247.09;;;2.95;89.56
40730;BME280;26418;50.070;8.436;2023-02-15T13:08:02;101260.84;;;2.98;88.99
40730;BME280;26418;50.070;8.436;2023-02-15T13:10:32;101248.28;;;2.99;89.24
40730;BME280;26418;50.070;8.436;2023-02-15T13:12:59;101246.22;;;3.01;88.85
40730;BME280;26418;50.070;8.436;2023-02-15T13:15:41;101239.44;;;3.05;89.31
40730;BME280;26418;50.070;8.436;2023-02-15T13:18:15;101239.47;;;2.98;88.32
40730;BME280;26418;50.070;8.436;2023-02-15T13:20:41;101234.53;;;2.95;88.65
40730;BME280;26418;50.070;8.436;2023-02-15T13:23:29;101229.25;;;2.89;88.17
40730;BME280;26418;50.070;8.436;2023-02-15T13:25:58;101229.69;;;2.86;89.12
40730;BME280;26418;50.070;8.436;2023-02-15T13:28:31;101229.00;;;2.97;89.68
40730;BME280;26418;50.070;8.436;2023-02-15T13:30:59;101224.22;;;2.99;89.57
40730;BME280;26418;50.070;8.436;2023-02-15T13:33:30;101218.72;;;2.94;88.82
40730;BME280;26418;50.070;8.436;2023-02-15T13:39:20;101216.19;;;3.06;89.88
40730;BME280;26418;50.070;8.436;2023-02-15T13:52:33;101208.75;;;3.08;90.91
40730;BME280;26418;50.070;8.436;2023-02-15T14:08:58;101189.47;;;3.87;92.13
40730;BME280;26418;50.070;8.436;2023-02-15T14:20:24;101184.56;;;4.33;84.51
40730;BME280;26418;50.070;8.436;2023-02-15T14:23:19;101183.53;;;4.34;84.25
40730;BME280;26418;50.070;8.436;2023-02-15T14:25:46;101186.34;;;4.39;83.87
40730;BME280;26418;50.070;8.436;2023-02-15T14:28:21;101178.03;;;4.29;82.59
40730;BME280;26418;50.070;8.436;2023-02-15T14:30:53;101181.25;;;4.19;83.68
40730;BME280;26418;50.070;8.436;2023-02-15T14:35:44;101174.50;;;4.16;83.70
40730;BME280;26418;50.070;8.436;2023-02-15T14:38:15;101177.59;;;4.13;84.04
40730;BME280;26418;50.070;8.436;2023-02-15T14:41:01;101180.28;;;4.13;84.56
40730;BME280;26418;50.070;8.436;2023-02-15T14:48:49;101169.00;;;4.11;82.61
40730;BME280;26418;50.070;8.436;2023-02-15T14:59:37;101164.03;;;3.96;83.91
40730;BME280;26418;50.070;8.436;2023-02-15T15:04:37;101170.97;;;3.85;83.48
40730;BME280;26418;50.070;8.436;2023-02-15T15:07:14;101169.09;;;3.86;84.09
40730;BME280;26418;50.070;8.436;2023-02-15T15:09:43;101168.06;;;3.87;84.34
40730;BME280;26418;50.070;8.436;2023-02-15T15:14:54;101161.06;;;3.86;84.67
40730;BME280;26418;50.070;8.436;2023-02-15T15:22:30;101147.31;;;3.64;84.80
40730;BME280;26418;50.070;8.436;2023-02-15T15:25:00;101135.53;;;3.53;85.75
40730;BME280;26418;50.070;8.436;2023-02-15T15:32:55;101161.22;;;3.54;87.25
40730;BME280;26418;50.070;8.436;2023-02-15T15:38:45;101163.19;;;3.65;87.39
40730;BME280;26418;50.070;8.436;2023-02-15T15:41:26;101168.91;;;3.69;87.00
40730;BME280;26418;50.070;8.436;2023-02-15T15:44:31;101170.75;;;3.68;86.20
40730;BME280;26418;50.070;8.436;2023-02-15T15:47:36;101173.47;;;3.61;86.01
40730;BME280;26418;50.070;8.436;2023-02-15T15:50:13;101158.50;;;3.60;85.76
40730;BME280;26418;50.070;8.436;2023-02-15T15:52:42;101169.63;;;3.57;84.05
40730;BME280;26418;50.070;8.436;2023-02-15T15:55:18;101175.50;;;3.48;85.16
40730;BME280;26418;50.070;8.436;2023-02-15T15:57:47;101170.59;;;3.44;85.80